Time;durP1;ratioP1;P1;durP2;ratioP2;P2;SDS_P1;SDS_P2;PMS_P1;PMS_P2;Temp;Humidity;BMP_temperature;BMP_pressure;BME280_temperature;BME280_humidity;BME280_pressure;Samples;Min_cycle;Max_cycle;Signal;HPM_P1;HPM_P2
2021/05/17 00:05:33;;;;;;;4.60;2.05;;;;;;;12.45;100.00;98033.16;4255943;81;28592;-77
2021/05/17 00:11:35;;;;;;;5.30;1.98;;;;;;;12.37;100.00;98027.77;4299007;81;28525;-77
2021/05/17 00:17:38;;;;;;;2.80;1.87;;;;;;;12.44;100.00;98027.50;4261669;82;28562;-76
2021/05/17 00:23:40;;;;;;;3.58;2.05;;;;;;;12.21;100.00;98026.38;4258358;81;28485;-77
2021/05/17 00:29:42;;;;;;;2.33;1.82;;;;;;;12.15;100.00;98017.22;4282121;81;28522;-76
2021/05/17 00:35:44;;;;;;;3.80;2.30;;;;;;;12.21;100.00;98004.03;4242716;82;28548;-76
2021/05/17 00:41:45;;;;;;;3.80;2.02;;;;;;;12.07;100.00;98010.47;4216528;82;28597;-77
2021/05/17 00:47:51;;;;;;;4.20;1.92;;;;;;;11.94;100.00;97999.10;4271699;82;28519;-77
2021/05/17 00:53:53;;;;;;;4.30;1.72;;;;;;;11.90;100.00;97987.22;4256931;82;28515;-77
2021/05/17 00:59:55;;;;;;;4.75;2.40;;;;;;;11.89;100.00;97978.08;4233384;83;28517;-77
2021/05/17 01:06:01;;;;;;;4.67;2.47;;;;;;;11.78;100.00;97963.24;4243178;83;28508;-77
2021/05/17 01:12:03;;;;;;;4.43;2.43;;;;;;;12.17;100.00;97960.64;4254420;83;28514;-77
2021/05/17 01:18:06;;;;;;;4.20;2.12;;;;;;;12.12;100.00;97960.09;4233966;83;28509;-77
2021/05/17 01:24:09;;;;;;;4.78;2.50;;;;;;;12.08;100.00;97953.64;4251254;83;28570;-77
2021/05/17 01:30:12;;;;;;;3.50;2.40;;;;;;;12.13;100.00;97952.80;4259342;81;28651;-78
2021/05/17 01:36:16;;;;;;;6.10;3.75;;;;;;;12.36;100.00;97947.44;4231329;83;28510;-78
2021/05/17 01:42:21;;;;;;;4.55;2.62;;;;;;;12.21;100.00;97959.02;4241280;82;28478;-78
2021/05/17 01:48:25;;;;;;;5.10;2.62;;;;;;;12.29;100.00;97963.61;4249390;82;28523;-78
2021/05/17 01:54:31;;;;;;;3.75;2.47;;;;;;;12.37;100.00;97965.78;4267427;83;28487;-78
2021/05/17 02:00:33;;;;;;;4.42;2.72;;;;;;;12.46;100.00;97956.60;4284934;82;28508;-77
2021/05/17 02:06:37;;;;;;;4.78;2.98;;;;;;;12.54;100.00;97947.42;4266832;83;28553;-77
2021/05/17 02:12:39;;;;;;;3.55;2.40;;;;;;;12.74;100.00;97955.78;4283097;83;28606;-78
2021/05/17 02:18:49;;;;;;;6.33;4.08;;;;;;;12.58;100.00;97953.64;4287932;82;28490;-78
2021/05/17 02:24:51;;;;;;;8.10;4.42;;;;;;;12.59;100.00;97957.39;4268287;83;28531;-77
2021/05/17 02:30:53;;;;;;;7.70;2.67;;;;;;;12.69;100.00;97958.73;4237578;82;28513;-75
2021/05/17 02:36:55;;;;;;;4.22;2.45;;;;;;;12.86;100.00;97960.87;4268418;83;28502;-79
2021/05/17 02:43:05;;;;;;;3.92;2.45;;;;;;;12.83;100.00;97964.38;4274398;83;28526;-76
2021/05/17 02:49:15;;;;;;;5.65;3.30;;;;;;;12.72;100.00;97931.77;4244027;83;28539;-75
2021/05/17 02:55:16;;;;;;;5.58;3.15;;;;;;;12.91;100.00;97938.77;4258053;81;28582;-75
2021/05/17 03:01:38;;;;;;;9.90;3.90;;;;;;;12.80;100.00;97936.62;4296913;83;28519;-77
2021/05/17 03:07:47;;;;;;;4.75;3.02;;;;;;;12.88;100.00;97939.84;4296729;81;28537;-78
2021/05/17 03:13:52;;;;;;;5.72;3.65;;;;;;;12.99;100.00;97943.31;4294358;83;28553;-78
2021/05/17 03:19:53;;;;;;;6.45;4.05;;;;;;;13.31;100.00;97938.90;4254888;83;28540;-76
2021/05/17 03:25:56;;;;;;;6.03;4.28;;;;;;;13.37;100.00;97935.08;4275862;83;28490;-77
2021/05/17 03:31:57;;;;;;;9.40;5.17;;;;;;;13.43;100.00;97942.61;4276595;83;28511;-77
2021/05/17 03:37:59;;;;;;;8.93;5.30;;;;;;;13.44;100.00;97960.48;4298292;83;28547;-77
2021/05/17 03:44:00;;;;;;;6.95;4.22;;;;;;;13.47;100.00;97973.95;4277417;83;28615;-76
2021/05/17 03:50:03;;;;;;;11.28;6.33;;;;;;;13.54;100.00;97981.22;4285442;81;28566;-76
2021/05/17 03:56:06;;;;;;;12.88;7.90;;;;;;;13.70;100.00;97987.92;4211955;83;28497;-76
2021/05/17 04:02:08;;;;;;;15.98;7.60;;;;;;;13.61;100.00;97992.54;4282160;81;28602;-76
2021/05/17 04:12:28;;;;;;;10.82;6.47;;;;;;;13.68;100.00;97984.66;4271491;83;28505;-76
2021/05/17 04:14:21;;;;;;;11.33;6.67;;;;;;;13.93;100.00;97976.97;4248815;81;28499;-77
2021/05/17 04:20:23;;;;;;;15.32;8.08;;;;;;;13.88;100.00;97972.40;4248045;82;28575;-76
2021/05/17 04:26:25;;;;;;;18.77;13.70;;;;;;;14.27;100.00;97976.77;4278497;81;28551;-77
2021/05/17 04:32:26;;;;;;;21.70;12.20;;;;;;;13.79;100.00;97988.39;4290702;82;28498;-77
2021/05/17 04:38:28;;;;;;;15.03;8.83;;;;;;;14.47;100.00;97988.77;4301114;83;28499;-76
2021/05/17 04:44:29;;;;;;;13.83;7.53;;;;;;;14.80;100.00;97997.73;4290657;81;28495;-76
2021/05/17 04:50:30;;;;;;;15.00;10.25;;;;;;;14.77;100.00;97976.11;4295721;81;28518;-76
2021/05/17 04:56:32;;;;;;;16.65;9.58;;;;;;;14.60;100.00;97978.39;4301179;82;28509;-77
2021/05/17 05:02:34;;;;;;;12.50;8.13;;;;;;;15.10;100.00;97984.19;4278386;81;28589;-77
2021/05/17 05:08:35;;;;;;;11.65;6.95;;;;;;;15.27;100.00;97986.44;4283687;83;28513;-76
2021/05/17 05:14:37;;;;;;;11.20;6.67;;;;;;;15.68;100.00;97992.72;4291780;82;28553;-76
2021/05/17 05:20:38;;;;;;;10.05;6.72;;;;;;;15.85;100.00;98006.34;4285007;83;28567;-77
2021/05/17 05:32:54;;;;;;;7.87;5.37;;;;;;;15.40;100.00;97997.92;4204920;81;28500;-77
2021/05/17 05:38:54;;;;;;;10.60;5.75;;;;;;;15.43;100.00;97997.36;4189017;83;28509;-78
2021/05/17 05:44:55;;;;;;;10.23;5.47;;;;;;;15.72;100.00;97986.17;4210716;83;28551;-78
2021/05/17 05:50:58;;;;;;;13.50;6.00;;;;;;;15.84;100.00;97987.11;4202846;83;28537;-78
2021/05/17 05:56:59;;;;;;;9.03;4.62;;;;;;;15.60;100.00;97972.50;4266729;81;28604;-78
2021/05/17 06:03:01;;;;;;;9.15;4.90;;;;;;;16.30;100.00;97967.48;4297923;83;28491;-78
2021/05/17 06:09:04;;;;;;;14.93;5.92;;;;;;;16.13;100.00;97963.95;4297606;83;28506;-77
2021/05/17 06:15:07;;;;;;;12.63;6.25;;;;;;;16.34;100.00;97962.81;4293076;83;28517;-77
2021/05/17 06:21:10;;;;;;;10.30;6.35;;;;;;;16.88;100.00;97954.34;4277131;81;28589;-78
2021/05/17 06:27:12;;;;;;;13.38;5.95;;;;;;;17.09;100.00;97958.85;4277709;81;28507;-78
2021/05/17 06:33:15;;;;;;;12.88;5.78;;;;;;;17.22;100.00;97945.82;4287344;83;28576;-77
2021/05/17 06:39:16;;;;;;;9.65;5.12;;;;;;;17.83;100.00;97944.86;4265547;82;28500;-78
2021/05/17 06:45:19;;;;;;;11.03;6.00;;;;;;;18.34;100.00;97931.21;4270618;83;28499;-78
2021/05/17 06:51:21;;;;;;;11.78;5.50;;;;;;;18.51;97.36;97934.02;4288620;83;28974;-79
2021/05/17 06:57:31;;;;;;;12.25;5.78;;;;;;;19.02;89.09;97928.39;4289013;83;28512;-78
2021/05/17 07:03:28;;;;;;;12.20;5.03;;;;;;;19.11;80.55;97924.35;4287372;81;28638;-78
2021/05/17 07:15:50;;;;;;;11.93;4.45;;;;;;;18.97;81.29;97909.45;4165555;83;28488;-81
2021/05/17 07:28:11;;;;;;;7.95;4.12;;;;;;;19.45;75.58;97901.58;4255194;83;28565;-80
2021/05/17 07:34:13;;;;;;;10.48;4.33;;;;;;;20.25;74.23;97892.89;4247809;83;28533;-80
2021/05/17 07:40:15;;;;;;;10.78;4.08;;;;;;;20.37;70.99;97885.41;4147710;83;28561;-80
2021/05/17 07:46:18;;;;;;;9.73;3.95;;;;;;;20.34;67.53;97868.53;4243339;83;28502;-79
2021/05/17 07:52:21;;;;;;;7.62;3.17;;;;;;;20.58;67.52;97870.48;4238693;83;28542;-79
2021/05/17 07:58:22;;;;;;;6.15;2.90;;;;;;;20.37;69.30;97860.27;4284707;81;28513;-77
2021/05/17 08:04:24;;;;;;;4.00;2.30;;;;;;;21.03;68.07;97865.11;4222589;84;28558;-78
2021/05/17 08:10:26;;;;;;;6.53;2.12;;;;;;;21.25;60.22;97860.48;4282481;81;28579;-79
2021/05/17 08:16:29;;;;;;;5.30;2.08;;;;;;;21.41;53.16;97853.31;4196982;83;28633;-79
2021/05/17 08:22:31;;;;;;;3.37;1.67;;;;;;;21.23;56.33;97842.26;4193924;83;28506;-80
2021/05/17 08:28:36;;;;;;;4.12;1.87;;;;;;;21.81;55.03;97834.84;4180998;83;28584;-80
2021/05/17 08:34:37;;;;;;;3.83;1.80;;;;;;;21.90;54.57;97835.56;4177979;83;28525;-80
2021/05/17 08:40:41;;;;;;;6.33;1.80;;;;;;;22.34;53.34;97839.82;4271140;81;28565;-80
2021/05/17 08:46:48;;;;;;;3.17;1.80;;;;;;;22.17;53.40;97842.15;4248684;82;28535;-83
2021/05/17 08:52:49;;;;;;;;;;;;;;;22.76;53.44;97836.94;4249979;82;28554;-84
2021/05/17 08:58:59;;;;;;;10.08;2.33;;;;;;;22.47;51.12;97832.41;4260630;82;20299;-83
2021/05/17 09:05:24;;;;;;;6.20;1.92;;;;;;;22.19;51.22;97839.31;4222392;82;28491;-84
2021/05/17 09:11:34;;;;;;;7.30;1.62;;;;;;;22.50;53.85;97836.67;4225890;82;28538;-83
2021/05/17 09:17:39;;;;;;;6.20;1.90;;;;;;;22.46;53.65;97840.40;4245892;82;28521;-85
2021/05/17 09:23:40;;;;;;;5.12;2.37;;;;;;;22.30;53.40;97839.70;4242058;82;28498;-84
2021/05/17 09:29:55;;;;;;;4.62;2.08;;;;;;;22.25;55.30;97836.61;4243926;82;28502;-84
2021/05/17 09:35:56;;;;;;;3.08;2.10;;;;;;;22.56;55.94;97850.39;4232569;82;28549;-83
2021/05/17 09:41:58;;;;;;;6.58;2.67;;;;;;;22.37;55.25;97852.83;4245298;82;28557;-84
2021/05/17 09:48:00;;;;;;;9.48;3.00;;;;;;;22.36;56.83;97856.12;4224513;82;28501;-84
2021/05/17 09:54:02;;;;;;;6.70;2.58;;;;;;;22.21;57.24;97854.83;4248212;82;28463;-84
2021/05/17 10:00:18;;;;;;;5.40;2.65;;;;;;;21.89;56.65;97850.38;4254303;81;28543;-83
2021/05/17 10:06:23;;;;;;;7.90;2.80;;;;;;;21.54;55.91;97841.86;4293966;81;28514;-83
2021/05/17 10:12:24;;;;;;;3.67;1.98;;;;;;;21.01;58.05;97836.74;4279757;81;28507;-85
2021/05/17 10:18:26;;;;;;;3.33;2.00;;;;;;;21.13;56.57;97842.88;4273649;81;28498;-84
2021/05/17 10:24:27;;;;;;;6.45;2.60;;;;;;;20.61;63.64;97838.42;4257869;81;28514;-85
2021/05/17 10:30:32;;;;;;;4.25;2.42;;;;;;;20.75;66.35;97832.20;4296370;81;28505;-85
2021/05/17 10:36:57;;;;;;;2.85;2.00;;;;;;;20.51;68.55;97831.41;4176998;82;28501;-85
2021/05/17 10:43:06;;;;;;;3.27;2.10;;;;;;;19.88;71.43;97821.72;4216412;84;28553;-83
2021/05/17 10:49:21;;;;;;;4.12;2.27;;;;;;;20.04;70.83;97819.31;4154254;85;28530;-84
2021/05/17 10:55:22;;;;;;;4.62;2.47;;;;;;;20.09;69.71;97810.16;4281451;83;28490;-85
2021/05/17 11:01:25;;;;;;;5.65;2.60;;;;;;;20.12;71.43;97816.91;4239565;83;28517;-85
2021/05/17 11:07:45;;;;;;;4.20;2.37;;;;;;;19.78;73.48;97815.23;4242996;83;28582;-85
2021/05/17 11:13:47;;;;;;;7.45;2.77;;;;;;;20.17;67.15;97806.62;4227545;83;28596;-86
2021/05/17 11:19:48;;;;;;;8.65;3.75;;;;;;;20.39;65.68;97805.36;4250183;81;28502;-83
2021/05/17 11:32:14;;;;;;;9.20;4.08;;;;;;;20.12;70.83;97805.45;4252502;81;28611;-83
2021/05/17 11:38:16;;;;;;;9.95;4.33;;;;;;;20.32;72.29;97812.12;4213036;83;28553;-82
2021/05/17 11:50:48;;;;;;;8.13;3.45;;;;;;;19.68;91.93;97812.28;4231683;83;28486;-84
2021/05/17 11:56:53;;;;;;;7.03;3.62;;;;;;;19.92;92.67;97816.42;4251047;81;28505;-83
2021/05/17 12:02:55;;;;;;;7.15;3.25;;;;;;;19.90;97.48;97824.14;4217374;83;28574;-81
2021/05/17 12:08:57;;;;;;;4.37;2.58;;;;;;;19.54;100.00;97813.81;4191092;83;28617;-82
2021/05/17 12:15:03;;;;;;;5.42;2.80;;;;;;;19.46;100.00;97810.52;4225621;83;28533;-81
2021/05/17 12:21:11;;;;;;;4.10;2.22;;;;;;;19.08;100.00;97811.38;4264107;81;28607;-81
2021/05/17 12:27:16;;;;;;;3.52;1.80;;;;;;;18.97;100.00;97796.42;4201867;83;28536;-81
2021/05/17 12:33:22;;;;;;;3.98;1.92;;;;;;;18.95;100.00;97798.64;4262969;81;28661;-80
2021/05/17 12:39:21;;;;;;;7.60;3.98;;;;;;;19.40;100.00;97806.36;4259670;82;28534;-80
2021/05/17 12:45:27;;;;;;;3.27;1.70;;;;;;;19.48;100.00;97804.99;4242622;81;28521;-80
2021/05/17 12:51:31;;;;;;;2.98;1.85;;;;;;;19.52;100.00;97803.80;4257580;81;28534;-81
2021/05/17 12:57:56;;;;;;;5.45;1.95;;;;;;;19.41;100.00;97799.21;4259323;82;28539;-81
2021/05/17 13:03:57;;;;;;;3.20;2.02;;;;;;;19.51;100.00;97793.44;4278983;82;28552;-81
2021/05/17 13:09:59;;;;;;;4.67;2.00;;;;;;;19.25;100.00;97799.45;4246725;82;28504;-81
2021/05/17 13:16:01;;;;;;;4.30;2.65;;;;;;;19.60;100.00;97796.73;4256506;82;28475;-82
2021/05/17 13:35:01;;;;;;;3.58;2.20;;;;;;;19.42;100.00;97796.75;4122097;85;28522;-86
2021/05/17 13:41:06;;;;;;;3.52;1.70;;;;;;;19.20;100.00;97791.66;4196907;83;28526;-83
2021/05/17 13:47:07;;;;;;;3.25;1.70;;;;;;;18.57;100.00;97795.10;4256352;82;28482;-82
2021/05/17 13:53:08;;;;;;;3.02;2.00;;;;;;;18.66;100.00;97795.94;4207781;83;28512;-83
2021/05/17 13:59:10;;;;;;;3.55;1.80;;;;;;;18.71;100.00;97797.72;4251914;82;28647;-83
2021/05/17 14:05:11;;;;;;;3.80;2.40;;;;;;;18.60;100.00;97788.48;4214726;83;28513;-82
2021/05/17 14:11:13;;;;;;;3.33;2.50;;;;;;;18.15;100.00;97794.02;4221490;83;28534;-83
2021/05/17 14:17:15;;;;;;;5.83;3.22;;;;;;;18.61;100.00;97780.55;4236105;84;28533;-84
2021/05/17 14:23:16;;;;;;;6.37;3.08;;;;;;;18.39;100.00;97790.94;4155568;83;28534;-82
2021/05/17 14:29:19;;;;;;;7.17;2.92;;;;;;;18.31;100.00;97788.44;4195194;83;28517;-83
2021/05/17 14:35:20;;;;;;;4.20;2.80;;;;;;;18.63;100.00;97787.84;4160542;83;28506;-83
2021/05/17 14:41:22;;;;;;;5.33;3.00;;;;;;;18.84;100.00;97785.08;4252442;81;28581;-83
2021/05/17 14:47:24;;;;;;;6.28;3.50;;;;;;;19.03;100.00;97782.13;4236532;83;28519;-83
2021/05/17 14:53:26;;;;;;;5.72;3.90;;;;;;;18.96;100.00;97788.02;4216792;83;28527;-82
2021/05/17 14:59:27;;;;;;;6.15;3.33;;;;;;;18.87;100.00;97790.70;4263687;81;28513;-83
2021/05/17 15:05:29;;;;;;;4.30;2.62;;;;;;;18.77;100.00;97797.80;4209280;83;28562;-80
2021/05/17 15:11:30;;;;;;;3.95;2.47;;;;;;;18.09;100.00;97803.69;4251697;82;28585;-79
2021/05/17 15:17:32;;;;;;;4.42;2.00;;;;;;;17.65;100.00;97802.00;4184822;83;28556;-79
2021/05/17 15:23:34;;;;;;;3.30;1.87;;;;;;;17.50;100.00;97802.38;4273410;81;28607;-79
2021/05/17 15:29:36;;;;;;;2.98;1.77;;;;;;;17.54;100.00;97807.44;4268315;81;28611;-81
2021/05/17 15:35:40;;;;;;;3.60;1.98;;;;;;;17.13;100.00;97798.30;4270453;81;28494;-80
2021/05/17 15:41:41;;;;;;;3.00;1.80;;;;;;;16.74;100.00;97800.41;4194041;83;28574;-81
2021/05/17 15:47:43;;;;;;;6.65;4.00;;;;;;;17.15;100.00;97802.87;4233757;81;28553;-81
2021/05/17 15:53:50;;;;;;;2.95;2.15;;;;;;;16.95;100.00;97804.88;4225911;81;28549;-79
2021/05/17 15:59:51;;;;;;;3.58;1.70;;;;;;;17.26;100.00;97804.79;4273093;83;28497;-81
2021/05/17 16:05:53;;;;;;;3.30;1.82;;;;;;;16.95;100.00;97798.09;4212592;83;28512;-81
2021/05/17 16:12:06;;;;;;;2.62;1.60;;;;;;;16.82;100.00;97796.98;4241293;81;28569;-80
2021/05/17 16:18:35;;;;;;;3.20;1.80;;;;;;;16.62;100.00;97799.58;4261221;81;28537;-80
2021/05/17 16:24:30;;;;;;;4.87;2.30;;;;;;;17.36;100.00;97803.77;4226010;83;28534;-79
2021/05/17 16:30:32;;;;;;;2.15;1.35;;;;;;;17.42;100.00;97803.34;4204312;82;28567;-79
2021/05/17 16:36:35;;;;;;;3.12;1.80;;;;;;;17.31;100.00;97805.23;4300421;81;28541;-80
2021/05/17 17:07:09;;;;;;;7.28;3.40;;;;;;;17.75;100.00;97814.53;4386890;79;85296;-88
2021/05/17 17:13:11;;;;;;;9.15;4.03;;;;;;;17.57;100.00;97809.52;4324285;80;28587;-89
2021/05/17 17:19:13;;;;;;;7.65;4.15;;;;;;;17.00;100.00;97812.93;4307905;80;28525;-86
2021/05/17 17:25:14;;;;;;;7.62;4.65;;;;;;;17.06;100.00;97806.84;4328916;81;28609;-88
2021/05/17 17:31:16;;;;;;;7.03;4.20;;;;;;;16.64;100.00;97810.92;4304963;81;28500;-86
2021/05/17 17:37:17;;;;;;;7.17;4.75;;;;;;;16.93;100.00;97815.78;4301201;80;28528;-86
2021/05/17 17:43:21;;;;;;;8.88;5.20;;;;;;;16.94;100.00;97828.24;4320724;81;28554;-84
2021/05/17 17:49:22;;;;;;;7.72;4.87;;;;;;;16.84;100.00;97827.91;4320550;80;28515;-82
2021/05/17 17:55:24;;;;;;;6.60;4.78;;;;;;;17.06;100.00;97823.13;4319167;81;28492;-83
2021/05/17 18:01:25;;;;;;;6.62;4.80;;;;;;;16.91;100.00;97814.72;4298440;81;28580;-83
2021/05/17 18:07:28;;;;;;;7.67;4.60;;;;;;;17.03;100.00;97822.95;4319885;81;28486;-84
2021/05/17 18:13:30;;;;;;;7.40;4.20;;;;;;;16.76;100.00;97817.75;4318052;81;28558;-85
2021/05/17 18:19:32;;;;;;;5.78;4.05;;;;;;;16.68;100.00;97811.13;4314233;82;28511;-83
2021/05/17 18:25:34;;;;;;;6.83;4.78;;;;;;;16.73;100.00;97806.41;4304335;80;28469;-80
2021/05/17 18:31:45;;;;;;;6.62;4.75;;;;;;;16.75;100.00;97807.44;4316070;80;28541;-82
2021/05/17 18:37:42;;;;;;;6.45;4.78;;;;;;;16.66;100.00;97809.25;4304870;80;28586;-80
2021/05/17 18:49:52;;;;;;;9.00;5.55;;;;;;;16.15;100.00;97828.88;4144347;83;28478;-79
2021/05/17 18:55:54;;;;;;;7.47;4.90;;;;;;;15.83;100.00;97818.27;4178046;83;28572;-81
2021/05/17 19:01:55;;;;;;;7.17;4.90;;;;;;;15.66;100.00;97822.06;4177555;83;28513;-86
2021/05/17 19:07:57;;;;;;;8.38;5.30;;;;;;;15.88;100.00;97830.40;4234894;83;28511;-81
2021/05/17 19:13:58;;;;;;;7.90;5.00;;;;;;;16.24;100.00;97826.28;4205506;82;28497;-86
2021/05/17 19:20:03;;;;;;;9.33;5.30;;;;;;;15.84;100.00;97831.28;4324160;80;28497;-80
2021/05/17 19:26:05;;;;;;;9.18;6.05;;;;;;;15.79;100.00;97843.01;4330760;81;28496;-80
2021/05/17 19:32:07;;;;;;;8.10;6.00;;;;;;;16.17;100.00;97838.88;4335405;80;28566;-81
2021/05/17 19:38:09;;;;;;;8.85;5.85;;;;;;;16.15;100.00;97846.51;4317999;80;28487;-80
2021/05/17 19:44:13;;;;;;;9.15;6.17;;;;;;;16.15;100.00;97828.88;4321624;80;28510;-78
2021/05/17 19:50:18;;;;;;;9.25;6.47;;;;;;;16.12;100.00;97835.45;4318920;80;28558;-79
2021/05/17 19:56:19;;;;;;;9.83;5.95;;;;;;;16.14;100.00;97833.23;4326324;80;28540;-78
2021/05/17 20:02:21;;;;;;;9.40;6.20;;;;;;;16.20;100.00;97829.92;4334345;81;28472;-81
2021/05/17 20:08:24;;;;;;;8.40;5.90;;;;;;;16.24;100.00;97831.70;4320040;81;28602;-80
2021/05/17 20:14:26;;;;;;;7.42;5.40;;;;;;;16.23;100.00;97834.73;4332413;81;28495;-78
2021/05/17 20:20:28;;;;;;;9.08;6.35;;;;;;;16.32;100.00;97837.02;4335718;80;28548;-81
2021/05/17 20:26:29;;;;;;;10.75;6.85;;;;;;;16.24;100.00;97836.34;4323785;80;28506;-78
2021/05/17 20:32:33;;;;;;;10.70;7.33;;;;;;;16.16;100.00;97829.13;4324586;80;28471;-79
2021/05/17 20:38:35;;;;;;;10.68;7.30;;;;;;;16.05;100.00;97830.98;4326305;80;28505;-82
2021/05/17 20:44:38;;;;;;;12.73;7.95;;;;;;;16.22;100.00;97816.86;4328572;80;28494;-81
2021/05/17 20:50:40;;;;;;;11.68;7.92;;;;;;;15.56;100.00;97823.03;4341853;80;28533;-80
2021/05/17 20:56:41;;;;;;;11.65;6.87;;;;;;;15.79;100.00;97819.16;4328010;81;28504;-79
2021/05/17 21:02:44;;;;;;;13.10;7.85;;;;;;;15.37;100.00;97808.15;4182849;84;28544;-79
2021/05/17 21:08:46;;;;;;;11.97;7.47;;;;;;;15.48;100.00;97817.73;4204667;83;28560;-80
2021/05/17 21:14:47;;;;;;;9.40;6.20;;;;;;;15.45;100.00;97815.59;4203014;82;28809;-79
2021/05/17 21:20:51;;;;;;;13.03;7.08;;;;;;;15.04;100.00;97809.64;4338925;81;28479;-80
2021/05/17 21:26:54;;;;;;;9.90;6.30;;;;;;;15.06;100.00;97808.00;4342433;80;28527;-81
2021/05/17 21:33:00;;;;;;;9.75;6.10;;;;;;;15.40;100.00;97806.20;4343622;80;28494;-80
2021/05/17 21:38:59;;;;;;;7.67;4.83;;;;;;;14.77;100.00;97813.78;4335331;80;28565;-80
2021/05/17 21:45:02;;;;;;;7.03;4.25;;;;;;;14.64;100.00;97823.92;4342718;80;28603;-80
2021/05/17 21:51:04;;;;;;;7.55;3.67;;;;;;;15.14;100.00;97814.13;4334810;80;28525;-80
2021/05/17 21:57:06;;;;;;;5.72;3.10;;;;;;;14.90;100.00;97820.39;4329222;80;28478;-81
2021/05/17 22:03:17;;;;;;;5.62;3.30;;;;;;;14.91;100.00;97820.65;4268595;81;28531;-81
2021/05/17 22:16:03;;;;;;;5.35;2.80;;;;;;;14.98;100.00;97826.23;4331592;80;28676;-84
2021/05/17 22:22:00;;;;;;;3.80;2.30;;;;;;;14.78;100.00;97823.50;4331748;81;28518;-82
2021/05/17 22:28:03;;;;;;;4.78;2.37;;;;;;;14.73;100.00;97822.76;4214332;82;28544;-83
2021/05/17 22:34:09;;;;;;;5.10;3.05;;;;;;;14.87;100.00;97824.22;4354697;81;28517;-83
2021/05/17 22:40:11;;;;;;;6.47;3.77;;;;;;;14.81;100.00;97836.19;4323934;81;28588;-80
2021/05/17 22:46:12;;;;;;;6.40;3.87;;;;;;;14.81;100.00;97844.30;4330080;80;28551;-81
2021/05/17 22:52:14;;;;;;;6.47;3.20;;;;;;;14.60;100.00;97855.32;4339976;80;28589;-80
2021/05/17 22:58:18;;;;;;;5.70;3.90;;;;;;;14.62;100.00;97856.66;4335491;80;28539;-81
2021/05/17 23:04:19;;;;;;;6.45;3.30;;;;;;;14.31;100.00;97858.31;4183839;84;28501;-82
2021/05/17 23:10:21;;;;;;;6.17;3.02;;;;;;;14.42;100.00;97852.80;4189522;84;28499;-82
2021/05/17 23:16:23;;;;;;;5.10;2.80;;;;;;;14.30;100.00;97848.59;4190278;84;28494;-82
2021/05/17 23:22:30;;;;;;;5.35;2.90;;;;;;;14.40;100.00;97851.73;4188507;84;28506;-81
2021/05/17 23:28:28;;;;;;;5.20;3.45;;;;;;;14.49;100.00;97851.94;4182051;84;28533;-82
2021/05/17 23:34:30;;;;;;;5.30;3.40;;;;;;;14.43;100.00;97853.88;4176129;84;28523;-82
2021/05/17 23:40:35;;;;;;;4.55;3.17;;;;;;;14.22;100.00;97855.95;4203232;84;28477;-81
2021/05/17 23:46:37;;;;;;;5.97;4.10;;;;;;;14.20;100.00;97842.72;4187250;84;28490;-82
2021/05/17 23:52:38;;;;;;;8.48;5.12;;;;;;;14.24;100.00;97847.58;4180999;84;28501;-82
2021/05/17 23:58:39;;;;;;;6.45;4.58;;;;;;;14.22;100.00;97854.08;4180088;84;28492;-82
